createdAt,value
2022-12-11T00:00:50.191Z,101096.91
2022-12-11T00:03:18.440Z,101099.06
2022-12-11T00:05:45.904Z,101107.75
2022-12-11T00:08:13.806Z,101099.03
2022-12-11T00:10:48.442Z,101100.13
2022-12-11T00:13:15.764Z,101102.53
2022-12-11T00:15:42.553Z,101088.19
2022-12-11T00:18:13.551Z,101094.97
2022-12-11T00:20:40.651Z,101091.75
2022-12-11T00:23:07.463Z,101090.91
2022-12-11T00:25:34.347Z,101086.25
2022-12-11T00:28:01.303Z,101100.31
2022-12-11T00:30:28.323Z,101089.97
2022-12-11T00:32:55.324Z,101086.47
2022-12-11T00:35:22.387Z,101080.50
2022-12-11T00:37:49.303Z,101085.09
2022-12-11T00:40:16.463Z,101084.78
2022-12-11T00:42:43.865Z,101077.78
2022-12-11T00:45:11.794Z,101084.53
2022-12-11T00:47:39.168Z,101086.44
2022-12-11T00:50:07.088Z,101092.38
2022-12-11T00:52:34.931Z,101088.06
2022-12-11T00:55:02.199Z,101087.81
2022-12-11T00:57:29.306Z,101091.34
2022-12-11T00:59:56.290Z,101092.38
2022-12-11T01:02:23.188Z,101094.25
2022-12-11T01:04:50.197Z,101091.53
2022-12-11T01:07:17.192Z,101094.50
2022-12-11T01:10:02.531Z,101094.22
2022-12-11T01:12:29.527Z,101095.00
2022-12-11T01:14:56.329Z,101094.19
2022-12-11T01:17:23.189Z,101101.81
2022-12-11T01:19:50.116Z,101098.78
2022-12-11T01:22:16.842Z,101095.00
2022-12-11T01:24:44.265Z,101103.63
2022-12-11T01:27:11.101Z,101111.50
2022-12-11T01:29:37.958Z,101118.78
2022-12-11T01:32:04.926Z,101118.19
2022-12-11T01:34:33.391Z,101123.88
2022-12-11T01:37:00.216Z,101123.56
2022-12-11T01:39:27.159Z,101121.22
2022-12-11T01:42:01.377Z,101123.94
2022-12-11T01:44:31.078Z,101127.97
2022-12-11T01:46:58.563Z,101132.88
2022-12-11T01:49:27.564Z,101127.47
2022-12-11T01:52:03.255Z,101138.00
2022-12-11T01:54:30.582Z,101128.72
2022-12-11T01:57:03.359Z,101124.09
2022-12-11T01:59:34.221Z,101123.28
2022-12-11T02:02:06.772Z,101125.25
2022-12-11T02:04:35.674Z,101115.72
2022-12-11T02:07:03.663Z,101119.78
2022-12-11T02:09:33.651Z,101113.50
2022-12-11T02:12:26.637Z,101107.25
2022-12-11T02:14:59.929Z,101112.69
2022-12-11T02:17:34.776Z,101099.94
2022-12-11T02:20:22.285Z,101102.34
2022-12-11T02:22:49.876Z,101099.38
2022-12-11T02:25:35.847Z,101102.66
2022-12-11T02:28:19.390Z,101100.72
2022-12-11T02:30:55.345Z,101097.22
2022-12-11T02:33:28.841Z,101101.25
2022-12-11T02:35:57.254Z,101104.47
2022-12-11T02:38:32.864Z,101102.84
2022-12-11T02:41:01.316Z,101100.44
2022-12-11T02:43:30.906Z,101107.25
2022-12-11T02:45:59.304Z,101100.72
2022-12-11T02:48:26.594Z,101100.44
2022-12-11T02:50:58.195Z,101092.00
2022-12-11T02:53:28.193Z,101096.06
2022-12-11T02:56:04.072Z,101094.44
2022-12-11T02:58:33.945Z,101102.25
2022-12-11T03:01:01.090Z,101092.97
2022-12-11T03:03:29.451Z,101095.69
2022-12-11T03:05:56.444Z,101088.69
2022-12-11T03:08:23.424Z,101085.38
2022-12-11T03:10:50.331Z,101084.84
2022-12-11T03:13:21.868Z,101083.25
2022-12-11T03:15:51.489Z,101078.09
2022-12-11T03:18:36.750Z,101075.63
2022-12-11T03:21:32.750Z,101072.91
2022-12-11T03:24:15.756Z,101076.13
2022-12-11T03:26:46.578Z,101072.84
2022-12-11T03:29:21.249Z,101078.81
2022-12-11T03:32:19.954Z,101082.59
2022-12-11T03:34:58.149Z,101082.09
2022-12-11T03:37:29.085Z,101083.19
2022-12-11T03:40:01.052Z,101081.50
2022-12-11T03:42:28.658Z,101082.91
2022-12-11T03:44:59.217Z,101076.66
2022-12-11T03:47:28.944Z,101072.09
2022-12-11T03:49:58.527Z,101065.25
2022-12-11T03:52:28.574Z,101070.75
2022-12-11T03:54:59.626Z,101059.91
2022-12-11T03:57:31.678Z,101070.19
2022-12-11T03:59:58.828Z,101070.75
2022-12-11T04:02:25.774Z,101069.94
2022-12-11T04:04:53.380Z,101057.19
2022-12-11T04:07:20.197Z,101064.75
2022-12-11T04:09:46.955Z,101055.00
2022-12-11T04:12:13.729Z,101062.94
2022-12-11T04:14:59.117Z,101058.81
2022-12-11T04:17:44.328Z,101059.91
2022-12-11T04:20:30.343Z,101058.81
2022-12-11T04:23:16.428Z,101052.28
2022-12-11T04:25:43.339Z,101059.91
2022-12-11T04:28:10.286Z,101056.69
2022-12-11T04:30:37.205Z,101069.13
2022-12-11T04:33:04.430Z,101065.06
2022-12-11T04:35:31.495Z,101066.66
2022-12-11T04:37:58.770Z,101072.31
2022-12-11T04:40:25.641Z,101068.56
2022-12-11T04:42:52.419Z,101064.25
2022-12-11T04:45:19.325Z,101068.56
2022-12-11T04:47:46.064Z,101068.28
2022-12-11T04:50:14.793Z,101070.41
2022-12-11T04:52:42.794Z,101066.38
2022-12-11T04:55:11.229Z,101060.38
2022-12-11T04:57:38.805Z,101047.38
2022-12-11T05:00:11.292Z,101053.31
2022-12-11T05:02:39.363Z,101055.97
2022-12-11T05:05:09.920Z,101052.75
2022-12-11T05:07:37.941Z,101054.38
2022-12-11T05:10:05.775Z,101047.31
2022-12-11T05:12:33.365Z,101051.94
2022-12-11T05:15:00.240Z,101057.59
2022-12-11T05:17:27.059Z,101050.34
2022-12-11T05:19:55.144Z,101047.09
2022-12-11T05:22:22.075Z,101046.25
2022-12-11T05:24:49.118Z,101043.50
2022-12-11T05:27:15.935Z,101042.47
2022-12-11T05:29:42.979Z,101040.25
2022-12-11T05:32:10.285Z,101029.19
2022-12-11T05:34:37.210Z,101031.34
2022-12-11T05:37:04.088Z,101025.59
2022-12-11T05:39:31.171Z,101018.28
2022-12-11T05:41:57.974Z,101012.53
2022-12-11T05:44:25.820Z,101014.97
2022-12-11T05:46:52.850Z,101011.44
2022-12-11T05:49:20.106Z,101013.34
2022-12-11T05:51:47.442Z,101014.47
2022-12-11T05:54:14.771Z,101004.13
2022-12-11T05:56:41.745Z,101010.34
2022-12-11T05:59:09.177Z,101004.94
2022-12-11T06:01:39.462Z,101006.03
2022-12-11T06:04:08.602Z,101008.22
2022-12-11T06:06:36.997Z,101007.09
2022-12-11T06:09:05.512Z,101004.69
2022-12-11T06:11:34.456Z,101009.03
2022-12-11T06:14:03.452Z,101013.13
2022-12-11T06:16:30.789Z,101007.19
2022-12-11T06:18:58.587Z,101007.19
2022-12-11T06:21:28.311Z,101010.72
2022-12-11T06:23:57.318Z,101004.47
2022-12-11T06:26:25.010Z,101016.88
2022-12-11T06:28:52.893Z,101013.59
2022-12-11T06:31:20.257Z,101012.78
2022-12-11T06:33:47.499Z,101018.19
2022-12-11T06:36:17.339Z,101017.63
2022-12-11T06:38:44.769Z,101013.59
2022-12-11T06:41:12.255Z,101016.81
2022-12-11T06:43:40.805Z,101013.88
2022-12-11T06:46:11.442Z,101022.22
2022-12-11T06:48:38.636Z,101018.78
2022-12-11T06:51:07.706Z,101022.81
2022-12-11T06:53:35.028Z,101029.59
2022-12-11T06:56:08.329Z,101028.25
2022-12-11T06:58:36.725Z,101030.91
2022-12-11T07:01:04.864Z,101030.59
2022-12-11T07:03:31.842Z,101031.16
2022-12-11T07:06:02.627Z,101026.31
2022-12-11T07:08:30.028Z,101028.47
2022-12-11T07:11:03.544Z,101031.72
2022-12-11T07:13:30.363Z,101031.94
2022-12-11T07:15:59.186Z,101031.41
2022-12-11T07:18:27.180Z,101037.34
2022-12-11T07:20:54.695Z,101038.72
2022-12-11T07:23:21.527Z,101055.50
2022-12-11T07:25:48.923Z,101058.81
2022-12-11T07:28:16.933Z,101056.91
2022-12-11T07:30:44.096Z,101055.00
2022-12-11T07:33:11.014Z,101059.31
2022-12-11T07:35:38.000Z,101062.03
2022-12-11T07:38:04.830Z,101070.97
2022-12-11T07:40:31.810Z,101066.06
2022-12-11T07:42:58.592Z,101074.50
2022-12-11T07:45:26.508Z,101067.75
2022-12-11T07:47:53.409Z,101075.31
2022-12-11T07:50:20.178Z,101063.66
2022-12-11T07:52:47.234Z,101059.31
2022-12-11T07:55:14.146Z,101050.66
2022-12-11T07:57:40.933Z,101049.03
2022-12-11T08:00:08.723Z,101047.13
2022-12-11T08:02:39.635Z,101050.88
2022-12-11T08:05:08.096Z,101055.50
2022-12-11T08:07:36.352Z,101051.16
2022-12-11T08:10:04.583Z,101044.41
2022-12-11T08:12:31.384Z,101048.69
2022-12-11T08:14:58.423Z,101054.03
2022-12-11T08:17:30.103Z,101060.22
2022-12-11T08:19:58.865Z,101056.47
2022-12-11T08:22:25.679Z,101068.44
2022-12-11T08:24:52.459Z,101058.38
2022-12-11T08:27:19.459Z,101064.84
2022-12-11T08:29:47.578Z,101075.72
2022-12-11T08:32:16.763Z,101063.47
2022-12-11T08:34:43.903Z,101061.00
2022-12-11T08:37:10.689Z,101064.53
2022-12-11T08:39:37.638Z,101059.41
2022-12-11T08:42:05.692Z,101055.59
2022-12-11T08:44:32.426Z,101061.00
2022-12-11T08:46:59.192Z,101060.75
2022-12-11T08:49:29.857Z,101065.34
2022-12-11T08:51:59.541Z,101066.44
2022-12-11T08:54:26.473Z,101069.69
2022-12-11T08:56:57.830Z,101072.34
2022-12-11T08:59:25.867Z,101059.25
2022-12-11T09:01:52.836Z,101066.56
2022-12-11T09:04:19.817Z,101053.78
2022-12-11T09:06:46.670Z,101056.50
2022-12-11T09:09:13.465Z,101057.00
2022-12-11T09:11:40.675Z,101058.31
2022-12-11T09:14:08.455Z,101055.91
2022-12-11T09:16:40.380Z,101050.97
2022-12-11T09:19:09.405Z,101054.22
2022-12-11T09:21:36.472Z,101050.91
2022-12-11T09:24:04.028Z,101047.69
2022-12-11T09:26:31.313Z,101037.84
2022-12-11T09:28:58.711Z,101036.16
2022-12-11T09:31:31.345Z,101031.75
2022-12-11T09:34:01.593Z,101032.84
2022-12-11T09:36:28.818Z,101029.25
2022-12-11T09:38:55.958Z,101028.34
2022-12-11T09:41:22.927Z,101031.50
2022-12-11T09:44:16.778Z,101039.94
2022-12-11T09:46:45.517Z,101038.50
2022-12-11T09:49:32.679Z,101040.31
2022-12-11T09:52:26.519Z,101039.06
2022-12-11T09:54:59.601Z,101030.56
2022-12-11T09:57:43.839Z,101034.88
2022-12-11T10:00:14.068Z,101028.94
2022-12-11T10:02:59.076Z,101031.56
2022-12-11T10:05:32.147Z,101027.47
2022-12-11T10:08:16.722Z,101030.69
2022-12-11T10:10:59.992Z,101028.97
2022-12-11T10:13:35.895Z,101030.59
2022-12-11T10:16:20.334Z,101033.44
2022-12-11T10:18:49.094Z,101025.47
2022-12-11T10:21:18.624Z,101033.03
2022-12-11T10:23:58.697Z,101034.47
2022-12-11T10:26:27.470Z,101027.59
2022-12-11T10:28:54.834Z,101029.44
2022-12-11T10:31:40.992Z,101020.38
2022-12-11T10:34:39.559Z,101019.41
2022-12-11T10:37:06.838Z,101021.91
2022-12-11T10:39:33.704Z,101026.75
2022-12-11T10:42:14.767Z,101033.50
2022-12-11T10:44:41.591Z,101015.75
2022-12-11T10:47:18.293Z,101025.06
2022-12-11T10:49:56.606Z,101017.50
2022-12-11T10:52:31.883Z,101018.69
2022-12-11T10:55:02.887Z,101018.41
2022-12-11T10:57:35.681Z,101019.50
2022-12-11T11:00:07.461Z,101014.88
2022-12-11T11:02:41.910Z,101013.97
2022-12-11T11:05:27.133Z,101013.50
2022-12-11T11:08:25.456Z,101014.00
2022-12-11T11:11:00.182Z,101011.38
2022-12-11T11:13:31.315Z,101010.84
2022-12-11T11:16:03.387Z,101017.81
2022-12-11T11:18:31.387Z,101012.75
2022-12-11T11:20:59.207Z,101009.53
2022-12-11T11:23:27.238Z,101015.28
2022-12-11T11:26:00.745Z,101006.09
2022-12-11T11:28:35.322Z,101013.66
2022-12-11T11:31:02.663Z,101010.34
2022-12-11T11:33:31.289Z,101011.97
2022-12-11T11:36:04.045Z,101011.16
2022-12-11T11:38:30.814Z,101011.66
2022-12-11T11:41:15.320Z,101005.78
2022-12-11T11:43:48.955Z,101002.25
2022-12-11T11:46:32.478Z,101000.84
2022-12-11T11:49:28.166Z,100998.22
2022-12-11T11:52:02.184Z,100992.81
2022-12-11T11:54:36.824Z,100994.63
2022-12-11T11:57:35.664Z,100991.28
2022-12-11T12:00:20.805Z,100997.94
2022-12-11T12:03:01.677Z,100993.63
2022-12-11T12:05:59.366Z,100999.44
2022-12-11T12:08:44.650Z,101001.56
2022-12-11T12:11:14.392Z,100996.53
2022-12-11T12:14:50.514Z,100994.84
2022-12-11T12:17:23.189Z,101008.03
2022-12-11T12:19:59.119Z,101002.50
2022-12-11T12:22:34.302Z,100998.84
2022-12-11T12:25:16.369Z,100998.44
2022-12-11T12:27:58.158Z,101001.19
2022-12-11T12:30:27.443Z,100997.88
2022-12-11T12:33:35.619Z,100997.63
2022-12-11T12:36:07.224Z,101003.78
2022-12-11T12:38:45.761Z,101001.50
2022-12-11T12:41:22.641Z,101002.47
2022-12-11T12:44:15.343Z,101000.47
2022-12-11T12:47:08.533Z,101000.06
2022-12-11T12:49:50.177Z,100994.13
2022-12-11T12:52:31.385Z,100989.97
2022-12-11T12:55:16.057Z,100987.88
2022-12-11T12:57:47.675Z,100987.97
2022-12-11T13:00:31.100Z,100987.16
2022-12-11T13:03:00.759Z,100992.19
2022-12-11T13:05:35.678Z,100995.22
2022-12-11T13:08:04.948Z,100996.84
2022-12-11T13:10:37.493Z,100992.19
2022-12-11T13:13:06.900Z,100996.25
2022-12-11T13:15:45.449Z,100989.09
2022-12-11T13:18:51.043Z,101001.88
2022-12-11T13:21:32.964Z,100993.91
2022-12-11T13:24:20.312Z,100994.22
2022-12-11T13:26:49.080Z,100996.44
2022-12-11T13:29:29.456Z,100991.59
2022-12-11T13:32:11.478Z,100996.03
2022-12-11T13:34:45.051Z,101007.00
2022-12-11T13:37:32.031Z,101004.16
2022-12-11T13:40:00.151Z,100995.34
2022-12-11T13:42:34.557Z,100996.25
2022-12-11T13:45:03.013Z,100985.38
2022-12-11T13:47:32.125Z,100994.41
2022-12-11T13:50:37.693Z,100997.34
2022-12-11T13:53:05.535Z,100998.16
2022-12-11T13:55:35.064Z,100992.63
2022-12-11T13:58:02.481Z,100998.84
2022-12-11T14:00:32.938Z,101007.91
2022-12-11T14:03:05.010Z,101008.50
2022-12-11T14:05:34.492Z,101009.72
2022-12-11T14:08:09.148Z,101014.75
2022-12-11T14:10:37.410Z,101007.81
2022-12-11T14:13:07.138Z,101016.72
2022-12-11T14:15:36.750Z,101011.66
2022-12-11T14:18:05.781Z,101017.13
2022-12-11T14:20:34.334Z,101021.16
2022-12-11T14:23:09.624Z,101016.63
2022-12-11T14:25:36.978Z,101022.34
2022-12-11T14:28:04.254Z,101023.84
2022-12-11T14:30:33.684Z,101016.38
2022-12-11T14:33:05.510Z,101029.50
2022-12-11T14:35:39.079Z,101039.22
2022-12-11T14:38:17.133Z,101027.53
2022-12-11T14:40:47.238Z,101029.16
2022-12-11T14:43:31.637Z,101031.38
2022-12-11T14:46:04.091Z,101037.41
2022-12-11T14:48:43.152Z,101030.25
2022-12-11T14:51:15.344Z,101032.38
2022-12-11T14:53:46.247Z,101024.31
2022-12-11T14:56:27.620Z,101042.28
2022-12-11T14:58:58.602Z,101035.25
2022-12-11T15:01:32.852Z,101028.28
2022-12-11T15:04:02.559Z,101028.28
2022-12-11T15:06:33.444Z,101026.22
2022-12-11T15:09:25.684Z,101025.41
2022-12-11T15:11:56.012Z,101023.81
2022-12-11T15:14:24.459Z,101025.00
2022-12-11T15:16:54.672Z,101025.34
2022-12-11T15:19:30.774Z,101029.53
2022-12-11T15:22:12.749Z,101029.38
2022-12-11T15:24:45.173Z,101039.53
2022-12-11T15:27:37.406Z,101037.38
2022-12-11T15:30:28.684Z,101040.63
2022-12-11T15:33:12.023Z,101048.47
2022-12-11T15:35:51.242Z,101044.94
2022-12-11T15:38:28.414Z,101035.13
2022-12-11T15:40:56.229Z,101039.97
2022-12-11T15:43:23.502Z,101041.06
2022-12-11T15:45:50.439Z,101048.97
2022-12-11T15:48:17.484Z,101036.72
2022-12-11T15:50:44.378Z,101035.13
2022-12-11T15:53:11.178Z,101041.78
2022-12-11T15:55:39.306Z,101039.63
2022-12-11T15:58:13.787Z,101043.69
2022-12-11T16:00:40.942Z,101034.22
2022-12-11T16:03:11.292Z,101048.34
2022-12-11T16:05:38.163Z,101049.13
2022-12-11T16:08:05.623Z,101047.31
2022-12-11T16:10:32.462Z,101059.00
2022-12-11T16:12:59.915Z,101053.59
2022-12-11T16:15:27.335Z,101047.16
2022-12-11T16:18:06.764Z,101044.94
2022-12-11T16:20:35.619Z,101043.28
2022-12-11T16:23:03.144Z,101044.09
2022-12-11T16:25:31.700Z,101035.94
2022-12-11T16:28:01.124Z,101044.00
2022-12-11T16:30:29.347Z,101044.59
2022-12-11T16:32:56.836Z,101036.22
2022-12-11T16:35:23.738Z,101038.13
2022-12-11T16:37:54.361Z,101030.50
2022-12-11T16:40:21.819Z,101038.66
2022-12-11T16:42:49.655Z,101031.28
2022-12-11T16:45:22.497Z,101039.16
2022-12-11T16:47:49.918Z,101033.72
2022-12-11T16:50:17.471Z,101028.28
2022-12-11T16:52:44.806Z,101025.81
2022-12-11T16:55:13.102Z,101031.50
2022-12-11T16:57:40.546Z,101032.09
2022-12-11T17:00:09.753Z,101024.63
2022-12-11T17:02:37.287Z,101027.69
2022-12-11T17:05:04.372Z,101038.31
2022-12-11T17:07:32.592Z,101035.09
2022-12-11T17:10:00.960Z,101037.25
2022-12-11T17:12:28.078Z,101037.75
2022-12-11T17:14:56.430Z,101036.72
2022-12-11T17:17:23.798Z,101041.56
2022-12-11T17:19:50.689Z,101040.25
2022-12-11T17:22:17.571Z,101039.72
2022-12-11T17:24:44.550Z,101039.13
2022-12-11T17:27:11.486Z,101036.66
2022-12-11T17:29:38.362Z,101043.75
2022-12-11T17:32:05.668Z,101040.03
2022-12-11T17:34:37.844Z,101038.91
2022-12-11T17:37:05.810Z,101043.31
2022-12-11T17:39:33.285Z,101046.03
2022-12-11T17:42:00.946Z,101045.50
2022-12-11T17:44:30.630Z,101045.22
2022-12-11T17:47:04.668Z,101037.66
2022-12-11T17:49:34.431Z,101041.53
2022-12-11T17:52:01.280Z,101051.34
2022-12-11T17:54:28.441Z,101044.03
2022-12-11T17:56:55.393Z,101043.94
2022-12-11T17:59:22.302Z,101045.88
2022-12-11T18:01:49.303Z,101040.16
2022-12-11T18:04:16.201Z,101052.09
2022-12-11T18:06:43.022Z,101045.66
2022-12-11T18:09:10.366Z,101057.00
2022-12-11T18:11:37.731Z,101045.94
2022-12-11T18:14:04.714Z,101049.44
2022-12-11T18:16:35.638Z,101055.69
2022-12-11T18:19:02.777Z,101050.03
2022-12-11T18:21:33.503Z,101055.69
2022-12-11T18:24:00.970Z,101052.41
2022-12-11T18:26:29.331Z,101055.69
2022-12-11T18:28:56.256Z,101056.53
2022-12-11T18:31:23.863Z,101057.44
2022-12-11T18:33:51.689Z,101052.28
2022-12-11T18:36:20.068Z,101056.84
2022-12-11T18:38:48.132Z,101064.41
2022-12-11T18:41:16.902Z,101063.03
2022-12-11T18:43:44.288Z,101058.41
2022-12-11T18:46:14.825Z,101062.50
2022-12-11T18:48:42.679Z,101060.06
2022-12-11T18:51:12.952Z,101055.75
2022-12-11T18:53:40.746Z,101059.84
2022-12-11T18:56:12.832Z,101056.63
2022-12-11T18:58:40.855Z,101050.69
2022-12-11T19:01:10.238Z,101051.19
2022-12-11T19:03:37.327Z,101050.69
2022-12-11T19:06:12.900Z,101048.47
2022-12-11T19:08:40.540Z,101049.78
2022-12-11T19:11:07.451Z,101047.66
2022-12-11T19:13:35.559Z,101051.50
2022-12-11T19:16:02.498Z,101041.97
2022-12-11T19:18:29.461Z,101040.06
2022-12-11T19:21:08.110Z,101039.25
2022-12-11T19:23:36.713Z,101047.63
2022-12-11T19:26:04.087Z,101042.47
2022-12-11T19:28:31.530Z,101046.25
2022-12-11T19:30:58.638Z,101043.63
2022-12-11T19:33:25.963Z,101055.06
2022-12-11T19:36:06.122Z,101052.59
2022-12-11T19:38:33.661Z,101050.69
2022-12-11T19:41:08.512Z,101049.94
2022-12-11T19:43:37.004Z,101052.09
2022-12-11T19:46:09.086Z,101046.69
2022-12-11T19:48:38.737Z,101043.81
2022-12-11T19:51:07.060Z,101046.56
2022-12-11T19:53:35.033Z,101045.59
2022-12-11T19:56:03.363Z,101050.03
2022-12-11T19:58:30.583Z,101044.34
2022-12-11T20:00:57.564Z,101043.03
2022-12-11T20:03:25.217Z,101045.25
2022-12-11T20:05:52.269Z,101045.38
2022-12-11T20:08:43.358Z,101045.41
2022-12-11T20:11:12.824Z,101052.72
2022-12-11T20:13:45.633Z,101050.59
2022-12-11T20:16:13.758Z,101055.22
2022-12-11T20:18:40.877Z,101042.75
2022-12-11T20:21:11.801Z,101043.31
2022-12-11T20:23:39.171Z,101054.72
2022-12-11T20:26:08.113Z,101054.47
2022-12-11T20:28:35.472Z,101052.06
2022-12-11T20:31:18.216Z,101060.78
2022-12-11T20:33:47.197Z,101054.25
2022-12-11T20:36:15.857Z,101051.31
2022-12-11T20:38:43.638Z,101050.44
2022-12-11T20:41:16.180Z,101060.16
2022-12-11T20:43:44.500Z,101060.97
2022-12-11T20:46:14.851Z,101058.78
2022-12-11T20:48:43.349Z,101061.72
2022-12-11T20:51:12.091Z,101060.59
2022-12-11T20:53:40.268Z,101068.66
2022-12-11T20:56:33.703Z,101077.03
2022-12-11T20:59:01.205Z,101080.56
2022-12-11T21:01:31.510Z,101082.16
2022-12-11T21:03:59.769Z,101078.56
2022-12-11T21:06:34.650Z,101074.19
2022-12-11T21:09:09.433Z,101072.88
2022-12-11T21:11:36.794Z,101082.06
2022-12-11T21:14:04.301Z,101077.41
2022-12-11T21:16:31.337Z,101071.53
2022-12-11T21:18:59.254Z,101079.44
2022-12-11T21:21:26.758Z,101078.91
2022-12-11T21:23:53.755Z,101074.06
2022-12-11T21:26:20.858Z,101082.97
2022-12-11T21:28:47.917Z,101080.25
2022-12-11T21:31:18.211Z,101084.78
2022-12-11T21:33:46.435Z,101078.81
2022-12-11T21:36:14.747Z,101081.81
2022-12-11T21:38:43.682Z,101079.69
2022-12-11T21:41:16.450Z,101076.47
2022-12-11T21:44:49.808Z,101074.56
2022-12-11T21:46:33.342Z,101074.06
2022-12-11T21:49:00.225Z,101078.13
2022-12-11T21:51:36.136Z,101075.19
2022-12-11T21:54:06.955Z,101076.34
2022-12-11T21:56:34.115Z,101079.63
2022-12-11T21:59:01.769Z,101077.50
2022-12-11T22:01:32.474Z,101077.50
2022-12-11T22:03:59.939Z,101078.38
2022-12-11T22:06:28.368Z,101075.13
2022-12-11T22:08:55.371Z,101080.25
2022-12-11T22:11:26.049Z,101081.59
2022-12-11T22:13:52.986Z,101083.69
2022-12-11T22:16:20.229Z,101088.84
2022-12-11T22:18:47.638Z,101091.03
2022-12-11T22:21:15.663Z,101092.09
2022-12-11T22:23:43.513Z,101093.19
2022-12-11T22:26:17.232Z,101078.81
2022-12-11T22:28:44.359Z,101081.03
2022-12-11T22:31:13.672Z,101092.44
2022-12-11T22:33:40.980Z,101091.41
2022-12-11T22:36:08.294Z,101084.63
2022-12-11T22:38:35.208Z,101085.47
2022-12-11T22:41:16.337Z,101087.97
2022-12-11T22:43:47.382Z,101080.97
2022-12-11T22:46:16.017Z,101078.28
2022-12-11T22:48:42.945Z,101078.63
2022-12-11T22:51:10.577Z,101082.44
2022-12-11T22:53:37.548Z,101077.03
2022-12-11T22:56:09.577Z,101081.69
2022-12-11T22:58:36.949Z,101091.44
2022-12-11T23:01:10.982Z,101091.22
2022-12-11T23:03:37.985Z,101094.19
2022-12-11T23:06:07.792Z,101090.97
2022-12-11T23:08:35.907Z,101086.38
2022-12-11T23:11:09.838Z,101087.19
2022-12-11T23:13:37.256Z,101088.84
2022-12-11T23:16:04.208Z,101097.22
2022-12-11T23:18:51.475Z,101096.41
2022-12-11T23:21:24.024Z,101094.53
2022-12-11T23:23:51.087Z,101102.66
2022-12-11T23:26:19.192Z,101097.22
2022-12-11T23:28:47.082Z,101096.16
2022-12-11T23:31:14.707Z,101102.41
2022-12-11T23:33:41.653Z,101093.22
2022-12-11T23:36:08.898Z,101101.91
2022-12-11T23:38:36.111Z,101103.25
2022-12-11T23:41:04.371Z,101113.28
2022-12-11T23:43:32.090Z,101110.31
2022-12-11T23:45:58.887Z,101124.13
2022-12-11T23:48:25.719Z,101117.34
2022-12-11T23:50:52.744Z,101121.66
2022-12-11T23:53:19.584Z,101126.50
2022-12-11T23:55:46.596Z,101114.84
2022-12-11T23:58:13.567Z,101127.53
